createdAt,value
2022-09-27T00:00:32.007Z,3.23
2022-09-27T00:03:00.201Z,3.50
2022-09-27T00:05:28.188Z,3.27
2022-09-27T00:07:56.155Z,3.30
2022-09-27T00:10:24.229Z,3.47
2022-09-27T00:12:54.117Z,3.40
2022-09-27T00:15:22.070Z,3.20
2022-09-27T00:17:51.914Z,3.60
2022-09-27T00:20:21.063Z,3.30
2022-09-27T00:22:49.931Z,3.30
2022-09-27T00:25:18.498Z,3.23
2022-09-27T00:27:46.606Z,3.30
2022-09-27T00:30:16.401Z,3.20
2022-09-27T00:32:44.371Z,3.53
2022-09-27T00:35:12.793Z,3.70
2022-09-27T00:37:40.802Z,3.73
2022-09-27T00:40:09.622Z,3.50
2022-09-27T00:42:37.707Z,3.73
2022-09-27T00:45:14.110Z,3.50
2022-09-27T00:47:48.789Z,3.47
2022-09-27T00:50:24.249Z,3.00
2022-09-27T00:53:01.242Z,3.53
2022-09-27T00:55:32.133Z,3.50
2022-09-27T00:58:00.125Z,3.70
2022-09-27T01:00:28.257Z,3.77
2022-09-27T01:02:58.278Z,3.90
2022-09-27T01:05:28.761Z,3.83
2022-09-27T01:08:00.586Z,4.03
2022-09-27T01:10:31.510Z,4.43
2022-09-27T01:13:05.692Z,4.17
2022-09-27T01:15:39.239Z,4.30
2022-09-27T01:18:18.937Z,4.10
2022-09-27T01:21:19.320Z,4.10
2022-09-27T01:23:58.091Z,4.33
2022-09-27T01:26:36.923Z,4.40
2022-09-27T01:29:10.821Z,4.20
2022-09-27T01:31:43.261Z,4.40
2022-09-27T01:34:19.158Z,5.00
2022-09-27T01:36:54.093Z,4.70
2022-09-27T01:39:31.498Z,4.90
2022-09-27T01:42:22.843Z,5.37
2022-09-27T01:45:00.010Z,5.97
2022-09-27T01:47:39.415Z,5.70
2022-09-27T01:50:40.448Z,5.50
2022-09-27T01:53:11.819Z,5.77
2022-09-27T01:55:56.809Z,6.53
2022-09-27T01:58:51.684Z,5.70
2022-09-27T02:01:21.794Z,7.97
2022-09-27T02:03:53.389Z,8.50
2022-09-27T02:06:52.964Z,8.07
2022-09-27T02:09:29.870Z,8.90
2022-09-27T02:12:21.882Z,9.23
2022-09-27T02:14:54.853Z,9.23
2022-09-27T02:17:29.933Z,9.93
2022-09-27T02:20:04.997Z,12.40
2022-09-27T02:22:43.928Z,10.10
2022-09-27T02:25:15.846Z,11.20
2022-09-27T02:27:52.452Z,9.90
2022-09-27T02:30:21.744Z,12.97
2022-09-27T02:32:56.031Z,18.23
2022-09-27T02:35:29.644Z,15.97
2022-09-27T02:37:57.720Z,23.63
2022-09-27T02:40:27.168Z,24.30
2022-09-27T02:42:55.155Z,25.50
2022-09-27T02:45:24.300Z,23.10
2022-09-27T02:48:03.681Z,18.37
2022-09-27T02:50:55.256Z,25.83
2022-09-27T02:53:56.071Z,31.37
2022-09-27T02:56:50.648Z,21.17
2022-09-27T02:59:45.537Z,34.10
2022-09-27T03:02:35.575Z,27.10
2022-09-27T03:05:25.517Z,32.00
2022-09-27T03:07:54.824Z,33.50
2022-09-27T03:10:25.025Z,43.93
2022-09-27T03:12:53.463Z,40.43
2022-09-27T03:15:21.831Z,46.47
2022-09-27T03:18:01.932Z,47.83
2022-09-27T03:20:58.650Z,51.30
2022-09-27T03:23:28.416Z,53.83
2022-09-27T03:25:56.549Z,82.80
2022-09-27T03:28:25.147Z,59.73
2022-09-27T03:30:53.645Z,68.23
2022-09-27T03:33:41.981Z,52.27
2022-09-27T03:36:12.585Z,67.50
2022-09-27T03:38:42.135Z,85.60
2022-09-27T03:41:13.211Z,86.93
2022-09-27T03:43:41.371Z,88.53
2022-09-27T03:46:09.414Z,116.37
2022-09-27T03:48:37.478Z,88.43
2022-09-27T03:51:05.612Z,118.53
2022-09-27T03:53:33.586Z,83.67
2022-09-27T03:56:03.367Z,95.97
2022-09-27T03:58:32.228Z,148.87
2022-09-27T04:01:00.460Z,120.93
2022-09-27T04:03:29.023Z,163.83
2022-09-27T04:06:16.036Z,138.23
2022-09-27T04:08:45.993Z,97.80
2022-09-27T04:11:15.532Z,111.20
2022-09-27T04:13:47.437Z,131.20
2022-09-27T04:16:16.196Z,145.47
2022-09-27T04:19:09.525Z,85.00
2022-09-27T04:21:49.804Z,101.47
2022-09-27T04:24:19.345Z,120.27
2022-09-27T04:27:11.174Z,108.43
2022-09-27T04:29:43.192Z,126.10
2022-09-27T04:32:27.140Z,124.90
2022-09-27T04:35:33.445Z,133.07
2022-09-27T04:38:01.784Z,167.87
2022-09-27T04:40:30.248Z,138.57
2022-09-27T04:42:59.858Z,160.40
2022-09-27T04:45:27.823Z,127.23
2022-09-27T04:47:56.047Z,175.70
2022-09-27T04:50:24.187Z,149.73
2022-09-27T04:53:03.209Z,124.93
2022-09-27T04:55:31.246Z,161.80
2022-09-27T04:58:01.714Z,149.30
2022-09-27T05:00:30.388Z,135.23
2022-09-27T05:03:05.359Z,158.23
2022-09-27T05:05:43.311Z,130.40
2022-09-27T05:08:11.805Z,117.73
2022-09-27T05:11:02.855Z,128.33
2022-09-27T05:13:32.243Z,129.13
2022-09-27T05:16:04.092Z,178.63
2022-09-27T05:18:50.618Z,152.03
2022-09-27T05:21:37.144Z,110.03
2022-09-27T05:24:05.781Z,178.77
2022-09-27T05:26:33.782Z,172.57
2022-09-27T05:29:03.315Z,169.23
2022-09-27T05:31:31.336Z,104.10
2022-09-27T05:33:59.433Z,93.80
2022-09-27T05:36:37.627Z,125.00
2022-09-27T05:39:07.057Z,92.07
2022-09-27T05:41:35.576Z,102.63
2022-09-27T05:44:05.968Z,95.20
2022-09-27T05:46:34.970Z,113.33
2022-09-27T05:49:02.989Z,125.40
2022-09-27T05:51:30.959Z,105.43
2022-09-27T05:53:59.290Z,95.70
2022-09-27T05:56:29.752Z,87.07
2022-09-27T05:59:11.302Z,72.73
2022-09-27T06:01:59.441Z,69.77
2022-09-27T06:04:46.343Z,89.83
2022-09-27T06:07:33.133Z,63.87
2022-09-27T06:10:03.119Z,73.07
2022-09-27T06:12:31.994Z,59.10
2022-09-27T06:15:02.722Z,54.27
2022-09-27T06:17:37.658Z,47.20
2022-09-27T06:20:13.665Z,37.37
2022-09-27T06:22:42.139Z,40.33
2022-09-27T06:25:11.124Z,39.97
2022-09-27T06:27:50.905Z,22.37
2022-09-27T06:30:27.159Z,24.97
2022-09-27T06:32:59.344Z,21.97
2022-09-27T06:35:47.513Z,22.80
2022-09-27T06:38:17.893Z,19.50
2022-09-27T06:40:53.130Z,23.60
2022-09-27T06:43:33.055Z,12.90
2022-09-27T06:46:07.993Z,22.27
2022-09-27T06:48:57.671Z,16.30
2022-09-27T06:51:26.064Z,12.17
2022-09-27T06:53:54.772Z,11.50
2022-09-27T06:56:22.776Z,17.73
2022-09-27T06:59:12.845Z,17.17
2022-09-27T07:01:45.402Z,10.40
2022-09-27T07:04:34.971Z,12.40
2022-09-27T07:07:11.913Z,9.20
2022-09-27T07:09:42.631Z,10.77
2022-09-27T07:12:13.429Z,9.53
2022-09-27T07:14:42.467Z,9.03
2022-09-27T07:17:15.872Z,6.90
2022-09-27T07:19:46.313Z,9.20
2022-09-27T07:22:14.741Z,12.27
2022-09-27T07:24:45.625Z,13.23
2022-09-27T07:27:15.137Z,18.77
2022-09-27T07:29:43.204Z,26.43
2022-09-27T07:32:11.137Z,28.43
2022-09-27T07:34:41.291Z,24.63
2022-09-27T07:37:09.635Z,28.03
2022-09-27T07:39:40.899Z,22.70
2022-09-27T07:42:08.868Z,19.57
2022-09-27T07:44:42.226Z,18.63
2022-09-27T07:47:24.641Z,13.77
2022-09-27T07:50:23.081Z,11.40
2022-09-27T07:52:59.959Z,14.73
2022-09-27T07:55:54.548Z,11.37
2022-09-27T07:58:25.695Z,25.23
2022-09-27T08:00:57.138Z,5.30
2022-09-27T08:03:25.343Z,4.30
2022-09-27T08:05:55.709Z,4.77
2022-09-27T08:08:24.249Z,3.90
2022-09-27T08:10:53.921Z,3.70
2022-09-27T08:13:21.970Z,3.13
2022-09-27T08:15:53.292Z,3.30
2022-09-27T08:18:24.727Z,3.23
2022-09-27T08:21:02.241Z,3.20
2022-09-27T08:23:43.008Z,3.23
2022-09-27T08:26:34.462Z,3.20
2022-09-27T08:29:14.706Z,3.10
2022-09-27T08:31:51.787Z,3.17
2022-09-27T08:34:20.494Z,3.10
2022-09-27T08:36:49.892Z,3.07
2022-09-27T08:39:17.949Z,3.10
2022-09-27T08:41:53.903Z,3.23
2022-09-27T08:44:29.343Z,3.10
2022-09-27T08:47:08.179Z,3.17
2022-09-27T08:49:40.076Z,3.03
2022-09-27T08:52:15.313Z,3.00
2022-09-27T08:54:44.076Z,3.27
2022-09-27T08:57:13.298Z,2.93
2022-09-27T08:59:44.288Z,3.00
2022-09-27T09:02:19.047Z,3.00
2022-09-27T09:04:51.948Z,2.97
2022-09-27T09:07:39.722Z,2.93
2022-09-27T09:10:41.413Z,3.10
2022-09-27T09:13:14.594Z,3.10
2022-09-27T09:15:56.288Z,3.00
2022-09-27T09:18:35.977Z,3.00
2022-09-27T09:21:24.288Z,2.77
2022-09-27T09:24:14.641Z,2.90
2022-09-27T09:26:46.840Z,2.93
2022-09-27T09:29:25.650Z,2.87
2022-09-27T09:31:59.611Z,3.47
2022-09-27T09:34:30.563Z,3.10
2022-09-27T09:37:00.624Z,2.83
2022-09-27T09:39:35.104Z,2.90
2022-09-27T09:42:11.705Z,3.00
2022-09-27T09:44:47.408Z,2.83
2022-09-27T09:47:21.363Z,2.77
2022-09-27T09:49:53.632Z,2.70
2022-09-27T09:52:23.814Z,2.87
2022-09-27T09:54:57.425Z,2.87
2022-09-27T09:57:30.229Z,2.97
2022-09-27T10:00:00.806Z,2.93
2022-09-27T10:02:32.737Z,2.90
2022-09-27T10:05:31.500Z,2.97
2022-09-27T10:08:05.748Z,2.73
2022-09-27T10:10:35.385Z,2.63
2022-09-27T10:13:26.214Z,2.70
2022-09-27T10:16:03.398Z,2.70
2022-09-27T10:18:33.501Z,2.80
2022-09-27T10:21:04.131Z,3.20
2022-09-27T10:23:32.139Z,2.80
2022-09-27T10:26:21.586Z,2.83
2022-09-27T10:28:52.177Z,3.20
2022-09-27T10:31:36.472Z,2.87
2022-09-27T10:34:20.243Z,2.73
2022-09-27T10:37:05.229Z,2.73
2022-09-27T10:39:35.512Z,2.70
2022-09-27T10:42:21.281Z,2.87
2022-09-27T10:44:50.257Z,2.90
2022-09-27T10:47:27.487Z,2.77
2022-09-27T10:50:38.605Z,2.67
2022-09-27T10:53:18.874Z,2.63
2022-09-27T10:55:53.915Z,2.80
2022-09-27T10:58:28.792Z,2.67
2022-09-27T11:00:58.506Z,2.70
2022-09-27T11:03:29.076Z,2.60
2022-09-27T11:05:59.423Z,2.80
2022-09-27T11:08:32.525Z,2.83
2022-09-27T11:11:13.768Z,2.77
2022-09-27T11:13:59.028Z,2.67
2022-09-27T11:16:46.235Z,2.50
2022-09-27T11:19:33.083Z,2.70
2022-09-27T11:22:04.063Z,2.50
2022-09-27T11:24:43.304Z,2.83
2022-09-27T11:27:22.302Z,2.80
2022-09-27T11:30:03.722Z,2.50
2022-09-27T11:33:18.879Z,2.63
2022-09-27T11:35:57.169Z,2.70
2022-09-27T11:38:51.210Z,2.53
2022-09-27T11:41:28.873Z,2.77
2022-09-27T11:44:09.167Z,2.80
2022-09-27T11:46:42.099Z,2.70
2022-09-27T11:49:32.405Z,2.60
2022-09-27T11:52:25.448Z,2.60
2022-09-27T11:55:10.723Z,2.60
2022-09-27T11:57:43.684Z,2.80
2022-09-27T12:00:17.822Z,2.80
2022-09-27T12:03:10.574Z,2.90
2022-09-27T12:05:57.826Z,2.90
2022-09-27T12:08:34.748Z,2.90
2022-09-27T12:11:06.525Z,2.90
2022-09-27T12:13:39.063Z,2.80
2022-09-27T12:16:07.740Z,3.00
2022-09-27T12:18:40.467Z,2.90
2022-09-27T12:21:23.108Z,3.13
2022-09-27T12:23:53.176Z,3.10
2022-09-27T12:26:37.700Z,2.90
2022-09-27T12:29:13.970Z,3.30
2022-09-27T12:31:45.626Z,3.27
2022-09-27T12:34:20.129Z,3.13
2022-09-27T12:36:52.860Z,3.20
2022-09-27T12:39:25.261Z,3.20
2022-09-27T12:42:03.135Z,2.90
2022-09-27T12:44:44.941Z,2.63
2022-09-27T12:47:35.644Z,2.90
2022-09-27T12:50:11.355Z,2.67
2022-09-27T12:52:43.025Z,2.60
2022-09-27T12:55:35.386Z,2.73
2022-09-27T12:58:37.672Z,2.67
2022-09-27T13:01:13.738Z,2.83
2022-09-27T13:04:03.496Z,2.73
2022-09-27T13:06:47.326Z,2.63
2022-09-27T13:09:46.304Z,2.50
2022-09-27T13:12:16.258Z,2.77
2022-09-27T13:14:58.656Z,2.60
2022-09-27T13:17:53.250Z,2.83
2022-09-27T13:20:48.247Z,2.57
2022-09-27T13:24:02.113Z,2.77
2022-09-27T13:27:42.871Z,2.57
2022-09-27T13:30:50.205Z,2.50
2022-09-27T13:33:43.231Z,2.53
2022-09-27T13:36:37.749Z,2.70
2022-09-27T13:39:23.065Z,2.73
2022-09-27T13:42:30.118Z,2.80
2022-09-27T13:45:16.015Z,2.80
2022-09-27T13:47:47.437Z,2.63
2022-09-27T13:50:26.643Z,2.73
2022-09-27T13:53:08.376Z,2.97
2022-09-27T13:55:46.797Z,2.80
2022-09-27T13:58:35.246Z,2.93
2022-09-27T14:01:13.278Z,2.97
2022-09-27T14:03:43.945Z,3.47
2022-09-27T14:06:15.306Z,2.97
2022-09-27T14:08:47.354Z,2.83
2022-09-27T14:11:19.173Z,3.00
2022-09-27T14:13:48.554Z,3.10
2022-09-27T14:16:20.850Z,3.20
2022-09-27T14:18:53.892Z,3.30
2022-09-27T14:21:32.288Z,3.03
2022-09-27T14:24:29.621Z,3.10
2022-09-27T14:27:10.548Z,3.20
2022-09-27T14:29:42.206Z,3.43
2022-09-27T14:32:13.174Z,3.30
2022-09-27T14:35:31.715Z,3.27
2022-09-27T14:38:07.480Z,3.13
2022-09-27T14:40:45.774Z,3.30
2022-09-27T14:43:18.301Z,3.20
2022-09-27T14:45:48.801Z,3.27
2022-09-27T14:48:22.291Z,3.33
2022-09-27T14:51:04.950Z,3.17
2022-09-27T14:53:35.588Z,3.37
2022-09-27T14:56:08.062Z,3.70
2022-09-27T14:58:47.276Z,3.30
2022-09-27T15:01:16.870Z,3.37
2022-09-27T15:03:46.471Z,3.00
2022-09-27T15:06:17.342Z,3.37
2022-09-27T15:08:49.287Z,3.17
2022-09-27T15:11:17.981Z,3.30
2022-09-27T15:13:50.637Z,2.83
2022-09-27T15:16:20.210Z,2.80
2022-09-27T15:18:49.533Z,3.00
2022-09-27T15:21:29.712Z,3.07
2022-09-27T15:23:58.837Z,2.90
2022-09-27T15:26:29.961Z,2.80
2022-09-27T15:28:59.343Z,4.38
2022-09-27T15:31:30.477Z,3.23
2022-09-27T15:33:59.303Z,2.80
2022-09-27T15:36:53.071Z,3.07
2022-09-27T15:39:22.390Z,3.00
2022-09-27T15:42:08.890Z,3.40
2022-09-27T15:44:45.261Z,3.17
2022-09-27T15:47:48.746Z,3.43
2022-09-27T15:50:36.154Z,3.43
2022-09-27T15:53:06.674Z,3.40
2022-09-27T15:55:37.731Z,3.37
2022-09-27T15:58:08.299Z,3.20
2022-09-27T16:00:37.755Z,3.50
2022-09-27T16:03:05.736Z,3.27
2022-09-27T16:05:33.786Z,3.80
2022-09-27T16:08:02.262Z,3.40
2022-09-27T16:10:33.325Z,3.90
2022-09-27T16:13:01.268Z,3.83
2022-09-27T16:15:29.246Z,3.70
2022-09-27T16:17:58.791Z,3.80
2022-09-27T16:20:28.166Z,4.37
2022-09-27T16:22:56.671Z,4.33
2022-09-27T16:25:24.849Z,4.40
2022-09-27T16:27:53.696Z,3.80
2022-09-27T16:30:21.669Z,4.23
2022-09-27T16:32:50.133Z,4.23
2022-09-27T16:35:20.984Z,4.90
2022-09-27T16:37:48.968Z,5.90
2022-09-27T16:40:17.998Z,6.20
2022-09-27T16:42:46.575Z,7.13
2022-09-27T16:45:19.150Z,7.87
2022-09-27T16:47:48.770Z,9.30
2022-09-27T16:50:34.516Z,11.77
2022-09-27T16:53:05.251Z,9.70
2022-09-27T16:55:33.241Z,9.07
2022-09-27T16:58:03.739Z,12.30
2022-09-27T17:00:33.279Z,7.63
2022-09-27T17:03:01.442Z,11.17
2022-09-27T17:05:29.561Z,11.10
2022-09-27T17:07:57.903Z,13.23
2022-09-27T17:10:27.444Z,15.77
2022-09-27T17:12:57.186Z,15.10
2022-09-27T17:15:25.192Z,18.20
2022-09-27T17:17:53.271Z,23.33
2022-09-27T17:20:21.211Z,21.40
2022-09-27T17:22:49.257Z,26.77
2022-09-27T17:25:17.412Z,22.73
2022-09-27T17:27:46.759Z,24.10
2022-09-27T17:30:14.824Z,25.77
2022-09-27T17:32:42.774Z,30.73
2022-09-27T17:35:10.860Z,24.17
2022-09-27T17:37:38.871Z,24.87
2022-09-27T17:40:07.644Z,24.30
2022-09-27T17:42:37.267Z,29.23
2022-09-27T17:45:07.693Z,17.43
2022-09-27T17:47:53.354Z,25.77
2022-09-27T17:50:28.743Z,16.77
2022-09-27T17:52:58.855Z,25.50
2022-09-27T17:55:27.603Z,19.23
2022-09-27T17:57:55.626Z,28.03
2022-09-27T18:00:25.011Z,29.87
2022-09-27T18:02:53.068Z,28.30
2022-09-27T18:05:21.748Z,27.63
2022-09-27T18:07:50.204Z,30.03
2022-09-27T18:10:18.712Z,37.00
2022-09-27T18:12:46.692Z,32.37
2022-09-27T18:15:20.301Z,50.80
2022-09-27T18:17:57.787Z,31.33
2022-09-27T18:20:26.221Z,23.80
2022-09-27T18:22:54.591Z,33.93
2022-09-27T18:25:25.142Z,33.17
2022-09-27T18:27:55.889Z,29.10
2022-09-27T18:30:24.093Z,28.00
2022-09-27T18:32:53.795Z,30.40
2022-09-27T18:35:23.855Z,27.53
2022-09-27T18:37:51.900Z,34.83
2022-09-27T18:40:38.019Z,35.77
2022-09-27T18:43:08.326Z,27.37
2022-09-27T18:45:37.133Z,34.53
2022-09-27T18:48:06.872Z,40.93
2022-09-27T18:50:38.569Z,51.10
2022-09-27T18:53:08.328Z,60.77
2022-09-27T18:55:38.380Z,77.57
2022-09-27T18:58:06.410Z,88.17
2022-09-27T19:00:34.509Z,77.37
2022-09-27T19:03:02.468Z,66.10
2022-09-27T19:05:31.871Z,117.13
2022-09-27T19:08:00.024Z,114.93
2022-09-27T19:10:28.077Z,104.30
2022-09-27T19:12:57.187Z,145.57
2022-09-27T19:15:25.596Z,142.33
2022-09-27T19:17:53.623Z,127.30
2022-09-27T19:20:21.647Z,147.60
2022-09-27T19:22:51.080Z,96.27
2022-09-27T19:25:19.028Z,87.97
2022-09-27T19:27:47.055Z,107.80
2022-09-27T19:30:15.368Z,138.23
2022-09-27T19:32:43.414Z,116.97
2022-09-27T19:35:12.429Z,122.47
2022-09-27T19:37:40.441Z,132.77
2022-09-27T19:40:10.398Z,129.50
2022-09-27T19:42:38.525Z,105.97
2022-09-27T19:45:11.443Z,123.23
2022-09-27T19:47:39.916Z,131.83
2022-09-27T19:50:09.067Z,118.37
2022-09-27T19:52:37.292Z,125.20
2022-09-27T19:55:06.708Z,137.63
2022-09-27T19:57:36.102Z,147.33
2022-09-27T20:00:04.998Z,129.50
2022-09-27T20:02:33.547Z,154.37
2022-09-27T20:05:01.873Z,145.13
2022-09-27T20:07:30.678Z,164.70
2022-09-27T20:09:58.636Z,208.30
2022-09-27T20:12:27.724Z,112.13
2022-09-27T20:14:57.016Z,142.73
2022-09-27T20:17:24.982Z,107.50
2022-09-27T20:19:52.906Z,120.17
2022-09-27T20:22:20.862Z,122.07
2022-09-27T20:24:48.799Z,116.60
2022-09-27T20:27:16.808Z,156.07
2022-09-27T20:29:44.858Z,121.23
2022-09-27T20:32:27.242Z,173.73
2022-09-27T20:34:55.984Z,156.30
2022-09-27T20:37:23.953Z,125.57
2022-09-27T20:39:53.556Z,139.03
2022-09-27T20:42:21.563Z,148.23
2022-09-27T20:44:53.925Z,188.83
2022-09-27T20:47:23.825Z,210.00
2022-09-27T20:49:51.799Z,217.80
2022-09-27T20:52:19.739Z,178.43
2022-09-27T20:54:47.781Z,189.10
2022-09-27T20:57:15.963Z,244.27
2022-09-27T20:59:43.947Z,237.73
2022-09-27T21:02:12.021Z,229.30
2022-09-27T21:04:41.419Z,288.10
2022-09-27T21:07:09.381Z,250.10
2022-09-27T21:09:38.675Z,217.53
2022-09-27T21:12:06.679Z,250.93
2022-09-27T21:14:34.696Z,306.67
2022-09-27T21:17:02.642Z,260.27
2022-09-27T21:19:30.717Z,244.43
2022-09-27T21:22:00.117Z,223.97
2022-09-27T21:24:28.162Z,257.97
2022-09-27T21:26:57.688Z,198.63
2022-09-27T21:29:25.668Z,125.97
2022-09-27T21:31:53.770Z,98.50
2022-09-27T21:34:21.841Z,101.53
2022-09-27T21:36:50.145Z,87.27
2022-09-27T21:39:19.614Z,118.80
2022-09-27T21:41:47.572Z,239.10
2022-09-27T21:44:15.772Z,147.30
2022-09-27T21:46:43.894Z,227.20
2022-09-27T21:49:11.971Z,199.43
2022-09-27T21:51:41.187Z,255.20
2022-09-27T21:54:11.149Z,258.47
2022-09-27T21:56:41.127Z,276.30
2022-09-27T21:59:12.043Z,408.33
2022-09-27T22:01:40.123Z,308.87
2022-09-27T22:04:08.252Z,392.57
2022-09-27T22:06:37.775Z,352.67
2022-09-27T22:09:07.995Z,393.10
2022-09-27T22:11:38.588Z,374.27
2022-09-27T22:14:07.957Z,376.97
2022-09-27T22:16:36.335Z,384.13
2022-09-27T22:19:04.909Z,413.63
2022-09-27T22:21:34.977Z,468.63
2022-09-27T22:24:07.749Z,428.30
2022-09-27T22:26:37.782Z,447.43
2022-09-27T22:29:06.271Z,462.67
2022-09-27T22:31:36.258Z,429.87
2022-09-27T22:34:06.006Z,425.67
2022-09-27T22:36:35.078Z,519.33
2022-09-27T22:39:03.387Z,550.90
2022-09-27T22:41:32.185Z,526.77
2022-09-27T22:44:01.203Z,527.83
2022-09-27T22:46:29.356Z,481.93
2022-09-27T22:48:58.740Z,435.17
2022-09-27T22:51:27.100Z,478.60
2022-09-27T22:53:55.068Z,421.03
2022-09-27T22:56:23.039Z,441.00
2022-09-27T22:58:51.445Z,511.20
2022-09-27T23:01:20.942Z,471.83
2022-09-27T23:03:50.107Z,445.53
2022-09-27T23:06:20.840Z,378.70
2022-09-27T23:08:49.578Z,403.70
2022-09-27T23:11:19.768Z,436.83
2022-09-27T23:13:49.093Z,477.03
2022-09-27T23:16:20.089Z,586.70
2022-09-27T23:18:48.685Z,514.27
2022-09-27T23:21:17.244Z,506.37
2022-09-27T23:23:47.377Z,598.33
2022-09-27T23:26:17.331Z,496.93
2022-09-27T23:28:45.650Z,461.10
2022-09-27T23:31:15.068Z,518.73
2022-09-27T23:33:44.954Z,563.47
2022-09-27T23:36:38.080Z,526.30
2022-09-27T23:39:07.503Z,457.77
2022-09-27T23:41:35.444Z,477.87
2022-09-27T23:44:03.358Z,422.70
2022-09-27T23:46:31.724Z,503.73
2022-09-27T23:48:59.785Z,447.63
2022-09-27T23:51:27.716Z,447.43
2022-09-27T23:53:57.699Z,403.57
2022-09-27T23:56:27.270Z,498.73
2022-09-27T23:58:55.288Z,450.30
